Terminal Aerodrome Forecast
Issued by NWS Sterling, VA

Current Version | Previous Version | Graphics & Text | Print | Product List | Glossary On
Versions: 1 2 3 4 5 6 7 8 9 10 11 12 13 14 15 16 17 18 19 20 21 22 23 24 25 26 27 28
000
FTUS41 KLWX 230901 AAA
TAFDCA
TAF AMD
KDCA 230901Z 2309/2406 21008KT P6SM -SHRA OVC070
     FM231100 20010KT P6SM -SHRA OVC015
     FM231400 22013G21KT P6SM BKN040 OVC070
     FM240300 22010KT P6SM -SHRA BKN050=

USA.gov is the U.S. government's official web portal to all federal, state and local government web resources and services.